Wrangell, AK

6:27 AM AKDT on August 24, 2016 (GMT -0800)
Wrangell | | Change Station

Elev 43 ft 56.48 °N, 132.37 °W | Updated 11 minutes ago

Overcast
Overcast
55 °F
Feels Like 55 °F
N
4
Wind Variable Wind from WSW

Today
High -- | Low -- °F
--% Chance of Precip.
Yesterday
High -- | Low -- °F
Precip. -- in
Pressure 30.55 in
Visibility 3.0 miles
Clouds Scattered Clouds 0 ft
Mostly Cloudy 1000 ft
Overcast 2500 ft
Dew Point 52 °F
Humidity 88%
Rainfall 0.00 in
Snow Depth Not available.
5:38 AM 8:03 PM
Waning Gibbous, 56% visible
METAR PAWG 241416Z 25003KT 3SM SCT000 BKN010 OVC025 13/11 A3055 RMK AO1 WEA:PRFG FG SCT000 KH
Pressure 30.55 in
Visibility 3.0 miles
Clouds Scattered Clouds 0 ft
Mostly Cloudy 1000 ft
Overcast 2500 ft
Dew Point 52 °F
Humidity 88%
Rainfall 0.00 in
Snow Depth Not available.
5:38 AM 8:03 PM
Waning Gibbous, 56% visible
METAR PAWG 241416Z 25003KT 3SM SCT000 BKN010 OVC025 13/11 A3055 RMK AO1 WEA:PRFG FG SCT000 KH

10-Day Weather Forecast

Almanac

Astronomy

Aug. 24, 2016 Rise Set
Actual Time
Civil Twilight
Nautical Twilight
Astronomical Twilight
Moon
Length of Visible Light
Length of Day
Tomorrow will be .
, % of the Moon is Illuminated

Today's Extremes

State Highs State Lows

Community

WunderPhotos

Upload Photos

1,934,606 photos uploaded!

WunderBlog® & News

Nearby

Air Quality

  Air Quality AQ Index Pollutant
Not available.

Snow Depth

Station Depth Elevation

Earthquake Activity

City Distance Mag. Time & Date
Minimum magnitude displayed is 2.5.

Coastal Water Temperatures

Place Temperature

Stations

Nearby Weather Stations

Station Location Temp. Windchill Dew Point Humidity Wind Precip. Elev Updated Type
                   

Watches & Warnings

There are currently no watches in effect.